createdAt,value
2018-11-21T00:00:27.882Z,0.4
2018-11-21T00:01:28.672Z,0.56
2018-11-21T00:02:30.013Z,0.49
2018-11-21T00:03:31.356Z,0.59
2018-11-21T00:04:31.868Z,0.36
2018-11-21T00:05:32.655Z,0.3
2018-11-21T00:06:34.160Z,0.26
2018-11-21T00:07:34.688Z,0.33
2018-11-21T00:08:35.323Z,0.26
2018-11-21T00:09:36.157Z,0.27
2018-11-21T00:10:36.494Z,0.29
2018-11-21T00:11:36.878Z,0.27
2018-11-21T00:12:37.665Z,0.39
2018-11-21T00:13:38.896Z,0.42
2018-11-21T00:14:39.962Z,0.39
2018-11-21T00:15:40.743Z,0.33
2018-11-21T00:16:42.526Z,0.36
2018-11-21T00:17:42.871Z,0.39
2018-11-21T00:18:43.489Z,0.47
2018-11-21T00:19:44.319Z,0.4
2018-11-21T00:20:44.828Z,0.49
2018-11-21T00:21:45.341Z,0.31
2018-11-21T00:22:46.685Z,0.27
2018-11-21T00:23:46.480Z,0.29
2018-11-21T00:24:47.548Z,0.29
2018-11-21T00:25:48.612Z,0.3
2018-11-21T00:26:49.401Z,0.33
2018-11-21T00:27:49.906Z,0.26
2018-11-21T00:28:51.257Z,0.26
2018-11-21T00:29:51.651Z,0.27
2018-11-21T00:30:52.993Z,0.15
2018-11-21T00:31:53.781Z,0.15
2018-11-21T00:32:55.406Z,0.13
2018-11-21T00:33:55.639Z,0.18
2018-11-21T00:34:56.426Z,0
2018-11-21T00:35:57.492Z,-0.02
2018-11-21T00:36:58.001Z,-0.15
2018-11-21T00:37:59.064Z,-0.1
2018-11-21T00:38:59.689Z,-0.23
2018-11-21T00:40:00.829Z,-0.27
2018-11-21T00:41:01.174Z,-0.21
2018-11-21T00:42:02.537Z,-0.17
2018-11-21T00:43:03.329Z,-0.12
2018-11-21T00:44:04.393Z,-0.18
2018-11-21T00:45:06.072Z,-0.09
2018-11-21T00:46:07.035Z,-0.1
2018-11-21T00:47:06.824Z,0
2018-11-21T00:48:07.888Z,-0.06
2018-11-21T00:49:08.674Z,-0.06
2018-11-21T00:50:10.100Z,0.01
2018-11-21T00:51:11.484Z,-0.18
2018-11-21T00:52:12.775Z,-0.24
2018-11-21T00:53:13.118Z,-0.2
2018-11-21T00:54:14.184Z,-0.26
2018-11-21T00:55:14.811Z,-0.42
2018-11-21T00:56:15.318Z,-0.46
2018-11-21T00:57:17.166Z,-0.42
2018-11-21T00:58:16.952Z,-0.45
2018-11-21T00:59:18.295Z,-0.44
2018-11-21T01:00:19.128Z,-0.44
2018-11-21T01:01:18.915Z,-0.38
2018-11-21T01:02:20.428Z,-0.27
2018-11-21T01:03:21.214Z,-0.27
2018-11-21T05:37:04.101Z,-1.15
2018-11-21T05:38:05.445Z,-1.12
2018-11-21T05:39:05.960Z,-1.14
2018-11-21T05:40:07.031Z,-1.18
2018-11-21T05:41:07.835Z,-1.27
2018-11-21T05:42:08.349Z,-1.25
2018-11-21T05:43:09.417Z,-1.33
2018-11-21T05:44:10.073Z,-1.27
2018-11-21T05:45:10.177Z,-1.36
2018-11-21T05:46:11.175Z,-1.32
2018-11-21T05:47:12.317Z,-1.25
2018-11-21T05:48:13.837Z,-1.38
2018-11-21T05:49:14.076Z,-1.32
2018-11-21T05:50:14.870Z,-1.27
2018-11-21T05:51:16.753Z,-1.25
2018-11-21T05:52:16.951Z,-1.29
2018-11-21T05:53:18.749Z,-1.35
2018-11-21T05:54:19.531Z,-1.29
2018-11-21T05:55:20.550Z,-1.3
2018-11-21T05:56:21.296Z,-1.36
2018-11-21T05:57:21.689Z,-1.25
2018-11-21T05:58:22.660Z,-1.29
2018-11-21T05:59:23.364Z,-1.29
2018-11-21T06:00:24.461Z,-1.27
2018-11-21T06:01:25.564Z,-1.11
2018-11-21T06:02:26.524Z,-1.07
2018-11-21T06:03:27.433Z,-1.04
2018-11-21T06:04:29.872Z,-1.01
2018-11-21T06:05:29.810Z,-0.94
2018-11-21T06:06:30.212Z,-0.91
2018-11-21T06:07:31.074Z,-0.93
2018-11-21T06:08:31.840Z,-0.93
2018-11-21T06:09:33.318Z,-0.93
2018-11-21T06:10:34.216Z,-0.96
2018-11-21T06:11:34.464Z,-1.01
2018-11-21T06:12:35.806Z,-0.97
2018-11-21T06:13:36.581Z,-1.03
2018-11-21T06:14:36.846Z,-1
2018-11-21T06:15:38.005Z,-0.93
2018-11-21T06:16:38.528Z,-0.97
2018-11-21T06:17:39.393Z,-0.94
2018-11-21T06:18:40.470Z,-0.85
2018-11-21T06:19:40.540Z,-0.93
2018-11-21T06:20:41.497Z,-0.91
2018-11-21T06:21:41.938Z,-0.89
2018-11-21T06:22:42.567Z,-0.91
2018-11-21T06:23:43.361Z,-0.96
2018-11-21T06:24:44.082Z,-0.97
2018-11-21T06:25:45.434Z,-1.01
2018-11-21T06:26:46.947Z,-0.93
2018-11-21T06:27:47.013Z,-0.97
2018-11-21T06:28:47.915Z,-0.91
2018-11-21T06:29:49.263Z,-1
2018-11-21T06:30:49.783Z,-1.03
2018-11-21T06:31:50.851Z,-0.99
2018-11-21T06:33:52.135Z,-0.97
2018-11-21T06:34:53.753Z,-1
2018-11-21T06:35:55.097Z,-0.94
2018-11-21T06:36:56.163Z,-0.96
2018-11-21T06:37:56.952Z,-0.94
2018-11-21T06:38:57.179Z,-0.97
2018-11-21T06:39:58.043Z,-1.14
2018-11-21T06:40:58.545Z,-1.09
2018-11-21T06:41:59.833Z,-1.17
2018-11-21T06:43:00.185Z,-1.24
2018-11-21T06:44:01.371Z,-1.33
2018-11-21T06:45:01.710Z,-1.36
2018-11-21T06:46:02.507Z,-1.27
2018-11-21T06:47:03.849Z,-1.29
2018-11-21T06:48:04.669Z,-1.14
2018-11-21T06:49:05.456Z,-1.17
2018-11-21T06:50:05.805Z,-1.21
2018-11-21T06:51:06.149Z,-1.09
2018-11-21T06:52:06.770Z,-1.03
2018-11-21T06:53:07.559Z,-1.07
2018-11-21T06:54:08.964Z,-1.06
2018-11-21T06:55:10.329Z,-1.11
2018-11-21T06:56:10.118Z,-1.09
2018-11-21T06:57:11.906Z,-1.17
2018-11-21T06:58:11.694Z,-1.07
2018-11-21T06:59:12.483Z,-1.09
2018-11-21T07:00:13.551Z,-1.07
2018-11-21T07:01:14.096Z,-1.22
2018-11-21T07:02:15.604Z,-1.27
2018-11-21T07:03:16.951Z,-1.42
2018-11-21T07:04:18.111Z,-1.33
2018-11-21T07:05:18.177Z,-1.35
2018-11-21T07:06:19.528Z,-1.32
2018-11-21T07:07:19.865Z,-1.36
2018-11-21T07:08:20.378Z,-1.38
2018-11-21T07:09:21.447Z,-1.36
2018-11-21T07:10:22.947Z,-1.32
2018-11-21T07:11:22.731Z,-1.19
2018-11-21T07:12:23.799Z,-1.07
2018-11-21T07:13:24.924Z,-1.03
2018-11-21T07:14:25.806Z,-0.97
2018-11-21T07:15:26.881Z,-0.93
2018-11-21T07:16:27.681Z,-0.96
2018-11-21T07:17:28.318Z,-0.93
2018-11-21T07:18:28.855Z,-0.96
2018-11-21T07:19:29.486Z,-1.15
2018-11-21T07:20:31.165Z,-1.12
2018-11-21T07:21:31.725Z,-1.21
2018-11-21T07:22:33.229Z,-1.27
2018-11-21T07:23:33.383Z,-1.29
2018-11-21T07:24:33.951Z,-1.33
2018-11-21T07:25:35.575Z,-1.39
2018-11-21T07:26:36.226Z,-1.39
2018-11-21T07:27:37.016Z,-1.32
2018-11-21T07:28:38.150Z,-1.33
2018-11-21T07:29:39.210Z,-1.3
2018-11-21T07:30:40.002Z,-1.27
2018-11-21T07:31:40.798Z,-1.3
2018-11-21T07:32:42.983Z,-1.29
2018-11-21T07:33:49.647Z,-1.25
2018-11-21T07:33:55.005Z,-1.32
2018-11-21T07:34:55.202Z,-1.18
2018-11-21T07:35:56.016Z,-1.17
2018-11-21T07:36:57.100Z,-1.21
2018-11-21T07:37:58.446Z,-1.19
2018-11-21T07:38:58.968Z,-1.18
2018-11-21T07:39:59.590Z,-1.25
2018-11-21T07:41:00.214Z,-1.11
2018-11-21T07:42:00.352Z,-1.14
2018-11-21T07:43:01.153Z,-1.12
2018-11-21T07:44:02.508Z,-1.12
2018-11-21T07:45:02.493Z,-1.12
2018-11-21T07:46:03.556Z,-1.11
2018-11-21T07:47:05.179Z,-1.14
2018-11-21T07:48:05.547Z,-1.09
2018-11-21T07:49:06.916Z,-1.14
2018-11-21T07:50:07.570Z,-1.19
2018-11-21T07:51:08.356Z,-1.12
2018-11-21T07:52:09.443Z,-1.12
2018-11-21T07:53:10.244Z,-1.11
2018-11-21T07:54:11.330Z,-0.99
2018-11-21T07:55:12.472Z,-0.99
2018-11-21T07:56:12.989Z,-0.93
2018-11-21T07:57:13.353Z,-0.8
2018-11-21T07:58:13.863Z,-0.81
2018-11-21T07:59:15.693Z,-0.89
2018-11-21T08:00:15.713Z,-0.85
2018-11-21T08:01:16.920Z,-0.94
2018-11-21T08:02:18.112Z,-0.93
2018-11-21T08:03:18.909Z,-0.82
2018-11-21T08:04:19.810Z,-0.89
2018-11-21T08:05:21.210Z,-0.84
2018-11-21T08:06:22.575Z,-0.93
2018-11-21T08:07:23.249Z,-0.91
2018-11-21T08:08:23.853Z,-0.91
2018-11-21T08:09:24.362Z,-0.91
2018-11-21T08:10:26.186Z,-0.75
2018-11-21T08:11:27.266Z,-0.64
2018-11-21T08:12:28.057Z,-0.67
2018-11-21T08:13:29.683Z,-0.66
2018-11-21T08:14:31.229Z,-0.45
2018-11-21T08:15:31.764Z,-0.42
2018-11-21T08:16:32.112Z,-0.56
2018-11-21T08:17:32.914Z,-0.45
2018-11-21T08:18:34.425Z,-0.53
2018-11-21T08:19:35.771Z,-0.45
2018-11-21T08:20:36.115Z,-0.36
2018-11-21T08:21:36.293Z,-0.45
2018-11-21T08:22:37.409Z,-0.41
2018-11-21T08:23:37.477Z,-0.45
2018-11-21T08:24:38.270Z,-0.45
2018-11-21T08:25:39.439Z,-0.36
2018-11-21T08:26:41.671Z,-0.24
2018-11-21T08:27:42.019Z,-0.28
2018-11-21T08:28:43.372Z,-0.26
2018-11-21T08:29:43.878Z,-0.27
2018-11-21T08:30:44.672Z,-0.24
2018-11-21T08:31:46.016Z,-0.44
2018-11-21T08:32:46.804Z,-0.38
2018-11-21T08:33:47.880Z,-0.36
2018-11-21T08:34:48.947Z,-0.42
2018-11-21T08:35:49.958Z,-0.44
2018-11-21T08:36:51.305Z,-0.24
2018-11-21T08:37:51.389Z,-0.24
2018-11-21T08:38:52.734Z,-0.28
2018-11-21T08:39:52.837Z,-0.21
2018-11-21T08:40:54.131Z,-0.3
2018-11-21T08:41:55.527Z,-0.18
2018-11-21T08:42:55.605Z,-0.36
2018-11-21T08:44:58.759Z,-0.36
2018-11-21T08:45:59.064Z,-0.26
2018-11-21T08:47:00.446Z,-0.42
2018-11-21T08:48:01.080Z,-0.45
2018-11-21T08:49:02.427Z,-0.46
2018-11-21T08:50:02.941Z,-0.51
2018-11-21T08:51:04.010Z,-0.57
2018-11-21T08:52:04.952Z,-0.72
2018-11-21T08:53:05.510Z,-0.64
2018-11-21T08:54:07.908Z,-0.6
2018-11-21T08:55:10.607Z,-0.69
2018-11-21T08:56:10.721Z,-0.72
2018-11-21T08:57:12.070Z,-0.69
2018-11-21T08:58:13.191Z,-0.69
2018-11-21T08:59:14.052Z,-0.69
2018-11-21T09:00:15.308Z,-0.69
2018-11-21T09:01:15.669Z,-0.91
2018-11-21T09:02:16.030Z,-0.82
2018-11-21T09:03:16.820Z,-0.67
2018-11-21T09:04:17.443Z,-0.57
2018-11-21T09:05:17.955Z,-0.67
2018-11-21T09:06:19.214Z,-0.69
2018-11-21T09:07:20.559Z,-0.74
2018-11-21T09:08:20.914Z,-0.66
2018-11-21T09:09:22.030Z,-0.67
2018-11-21T09:10:23.101Z,-0.64
2018-11-21T09:11:23.168Z,-0.69
2018-11-21T09:12:23.764Z,-0.66
2018-11-21T09:13:25.540Z,-0.77
2018-11-21T09:14:26.672Z,-0.75
2018-11-21T09:15:27.017Z,-0.78
2018-11-21T09:16:27.947Z,-0.75
2018-11-21T09:17:28.890Z,-0.77
2018-11-21T09:18:30.058Z,-0.8
2018-11-21T09:19:30.124Z,-0.8
2018-11-21T09:20:31.028Z,-0.91
2018-11-21T09:21:31.376Z,-0.91
2018-11-21T09:22:32.445Z,-0.8
2018-11-21T09:23:33.788Z,-0.82
2018-11-21T09:24:34.580Z,-0.81
2018-11-21T09:25:34.936Z,-0.75
2018-11-21T09:26:36.377Z,-0.77
2018-11-21T09:27:37.445Z,-0.64
2018-11-21T09:28:37.964Z,-0.67
2018-11-21T09:29:39.307Z,-0.62
2018-11-21T09:30:39.917Z,-0.69
2018-11-21T09:31:40.780Z,-0.69
2018-11-21T09:32:41.572Z,-0.66
2018-11-21T09:33:42.654Z,-0.69
2018-11-21T09:34:44.024Z,-0.64
2018-11-21T09:35:45.012Z,-0.44
2018-11-21T09:36:45.423Z,-0.39
2018-11-21T09:37:46.271Z,-0.36
2018-11-21T09:38:47.463Z,-0.45
2018-11-21T09:39:48.004Z,-0.39
2018-11-21T09:40:48.932Z,-0.26
2018-11-21T09:41:49.002Z,-0.23
2018-11-21T09:42:49.788Z,-0.26
2018-11-21T09:43:51.135Z,-0.24
2018-11-21T09:44:51.476Z,-0.24
2018-11-21T09:45:51.565Z,-0.24
2018-11-21T09:46:53.731Z,-0.18
2018-11-21T09:48:57.967Z,-0.18
2018-11-21T09:49:58.036Z,-0.2
2018-11-21T09:50:59.110Z,0.06
2018-11-21T09:53:56.168Z,0.29
2018-11-21T09:54:57.513Z,0.29
2018-11-21T09:55:58.586Z,0.4
2018-11-21T09:56:59.926Z,0.55
2018-11-21T09:58:00.834Z,0.63
2018-11-21T09:59:01.918Z,0.7
2018-11-21T10:00:03.824Z,0.77
2018-11-21T10:01:03.611Z,0.82
2018-11-21T10:02:04.119Z,0.85
2018-11-21T10:03:05.184Z,0.78
2018-11-21T10:04:06.024Z,0.82
2018-11-21T10:05:06.809Z,0.78
2018-11-21T10:06:07.743Z,0.73
2018-11-21T10:07:08.087Z,0.85
2018-11-21T10:08:09.151Z,0.77
2018-11-21T10:09:09.658Z,0.86
2018-11-21T10:10:10.724Z,0.86
2018-11-21T10:11:11.234Z,0.91
2018-11-21T10:12:12.609Z,0.84
2018-11-21T10:13:13.099Z,0.85
2018-11-21T10:14:13.269Z,0.7
2018-11-21T10:15:14.332Z,0.61
2018-11-21T10:16:18.747Z,0.42
2018-11-21T10:17:17.272Z,0.39
2018-11-21T10:18:20.174Z,0.42
2018-11-21T10:19:23.036Z,0.42
2018-11-21T10:19:33.052Z,0.55
2018-11-21T10:20:32.806Z,0.56
2018-11-21T10:21:35.537Z,0.73
2018-11-21T10:22:39.516Z,0.66
2018-11-21T10:22:47.533Z,0.66
2018-11-21T10:23:48.396Z,0.74
2018-11-21T10:24:49.026Z,0.81
2018-11-21T10:25:49.924Z,0.82
2018-11-21T10:26:50.730Z,0.7
2018-11-21T10:27:51.070Z,0.66
2018-11-21T10:28:52.414Z,0.64
2018-11-21T10:29:53.202Z,0.61
2018-11-21T10:30:53.987Z,0.56
2018-11-21T10:31:55.004Z,0.63
2018-11-21T10:32:55.938Z,0.77
2018-11-21T10:33:55.775Z,0.84
2018-11-21T10:34:56.841Z,0.78
2018-11-21T10:35:57.346Z,0.85
2018-11-21T10:36:58.988Z,0.91
2018-11-21T10:37:59.332Z,0.99
2018-11-21T10:39:00.309Z,0.78
2018-11-21T10:40:01.763Z,0.82
2018-11-21T10:41:02.833Z,0.86
2018-11-21T10:42:07.631Z,0.76
2018-11-21T10:42:16.322Z,0.82
2018-11-21T10:43:16.831Z,0.68
2018-11-21T10:44:17.825Z,0.66
2018-11-21T10:45:19.114Z,0.63
2018-11-21T10:46:23.595Z,0.71
2018-11-21T10:46:33.588Z,0.71
2018-11-21T10:46:44.143Z,0.67
2018-11-21T10:47:44.240Z,0.67
2018-11-21T10:48:45.311Z,0.73
2018-11-21T10:49:46.103Z,0.77
2018-11-21T10:50:46.892Z,0.81
2018-11-21T10:51:47.890Z,0.84
2018-11-21T10:52:48.513Z,0.96
2018-11-21T10:53:49.300Z,1.07
2018-11-21T10:54:50.388Z,0.95
2018-11-21T10:55:52.174Z,1.04
2018-11-21T10:56:53.238Z,1.04
2018-11-21T10:57:53.797Z,1.14
2018-11-21T10:58:53.864Z,1.16
2018-11-21T10:59:54.376Z,1.14
2018-11-21T11:00:55.996Z,1.21
2018-11-21T11:01:57.062Z,1.25
2018-11-21T11:02:58.694Z,1.28
2018-11-21T11:04:00.053Z,1.3
2018-11-21T11:05:03.249Z,1.3
2018-11-21T11:06:03.351Z,1.32
2018-11-21T11:07:03.828Z,1.36
2018-11-21T11:08:05.280Z,1.31
2018-11-21T11:09:05.900Z,1.3
2018-11-21T11:10:06.221Z,1.27
2018-11-21T11:11:07.289Z,1.2
2018-11-21T11:12:07.804Z,1.02
2018-11-21T11:13:08.862Z,0.85
2018-11-21T11:14:09.652Z,0.92
2018-11-21T11:15:10.724Z,0.89
2018-11-21T11:16:12.083Z,0.77
2018-11-21T11:17:13.150Z,0.78
2018-11-21T11:18:13.710Z,0.84
2018-11-21T11:19:14.507Z,0.84
2018-11-21T11:20:16.137Z,0.71
2018-11-21T11:21:16.202Z,0.73
2018-11-21T11:22:16.549Z,0.76
2018-11-21T11:23:17.335Z,0.84
2018-11-21T11:24:17.955Z,0.84
2018-11-21T11:25:19.106Z,0.88
2018-11-21T11:26:19.704Z,0.95
2018-11-21T11:27:20.711Z,1
2018-11-21T11:28:20.720Z,0.95
2018-11-21T11:29:20.803Z,1.1
2018-11-21T11:30:22.178Z,1.2
2018-11-21T11:31:22.683Z,1.18
2018-11-21T11:32:23.212Z,1.28
2018-11-21T11:33:24.109Z,1.25
2018-11-21T11:34:25.458Z,1.16
2018-11-21T11:35:26.518Z,1.22
2018-11-21T11:36:27.305Z,1.2
2018-11-21T11:37:27.917Z,1.16
2018-11-21T11:38:29.095Z,1.22
2018-11-21T11:39:29.440Z,1.07
2018-11-21T11:40:30.505Z,1.16
2018-11-21T11:41:30.852Z,1.16
2018-11-21T11:42:32.975Z,1.09
2018-11-21T11:43:33.967Z,1.07
2018-11-21T11:44:34.310Z,1.12
2018-11-21T11:45:34.833Z,0.96
2018-11-21T11:46:36.222Z,0.95
2018-11-21T11:47:36.009Z,0.89
2018-11-21T11:48:37.179Z,0.91
2018-11-21T11:49:37.830Z,0.84
2018-11-21T11:50:38.952Z,0.88
2018-11-21T11:51:39.736Z,0.77
2018-11-21T11:52:40.520Z,0.82
2018-11-21T11:53:41.441Z,0.74
2018-11-21T11:54:41.533Z,0.84
2018-11-21T11:55:43.154Z,0.89
2018-11-21T11:56:42.939Z,0.99
2018-11-21T11:57:44.486Z,0.94
2018-11-21T11:58:45.313Z,1.07
2018-11-21T11:59:46.376Z,1.04
2018-11-21T12:00:47.723Z,1.13
2018-11-21T12:01:48.344Z,1.14
2018-11-21T12:02:48.131Z,1.3
2018-11-21T12:03:49.482Z,1.25
2018-11-21T12:04:01.154Z,1.25
2018-11-21T12:05:02.481Z,1.42
2018-11-21T12:06:03.356Z,1.31
2018-11-21T12:07:04.260Z,1.38
2018-11-21T12:08:04.755Z,1.4
2018-11-21T12:09:06.105Z,1.52
2018-11-21T12:10:07.729Z,1.61
2018-11-21T12:11:08.237Z,1.58
2018-11-21T12:12:09.027Z,1.48
2018-11-21T12:13:09.641Z,1.56
2018-11-21T12:14:10.703Z,1.52
2018-11-21T12:15:10.817Z,1.56
2018-11-21T12:16:11.882Z,1.53
2018-11-21T12:17:12.111Z,1.45
2018-11-21T12:18:15.703Z,1.48
2018-11-21T12:19:17.066Z,1.56
2018-11-21T12:20:15.566Z,1.38
2018-11-21T12:21:15.915Z,1.4
2018-11-21T12:22:17.297Z,1.4
2018-11-21T12:23:17.804Z,1.42
2018-11-21T12:24:21.823Z,1.46
2018-11-21T12:24:34.507Z,1.42
2018-11-21T12:25:32.290Z,1.42
2018-11-21T12:26:33.406Z,1.4
2018-11-21T12:27:34.187Z,1.38
2018-11-21T12:28:34.986Z,1.39
2018-11-21T12:29:35.933Z,1.34
2018-11-21T12:30:36.727Z,1.3
2018-11-21T12:31:37.229Z,1.36
2018-11-21T12:32:40.572Z,1.24
2018-11-21T12:33:41.671Z,1.21
2018-11-21T12:34:42.453Z,1.21
2018-11-21T12:35:42.729Z,1.03
2018-11-21T12:36:43.351Z,1.09
2018-11-21T12:37:44.153Z,1.18
2018-11-21T12:38:44.944Z,1.09
2018-11-21T12:39:45.577Z,1.14
2018-11-21T12:40:45.918Z,1.2
2018-11-21T12:41:46.978Z,1.1
2018-11-21T12:42:47.799Z,1.14
2018-11-21T12:43:48.858Z,1.04
2018-11-21T12:44:49.793Z,1
2018-11-21T12:45:51.175Z,1.06
2018-11-21T12:46:52.074Z,1.02
2018-11-21T12:47:52.874Z,0.92
2018-11-21T12:48:53.465Z,1
2018-11-21T12:49:53.950Z,1
2018-11-21T12:50:55.080Z,1.07
2018-11-21T12:51:56.144Z,1.2
2018-11-21T12:52:56.494Z,1.13
2018-11-21T12:53:58.451Z,1.24
2018-11-21T12:54:58.514Z,1.31
2018-11-21T12:55:58.813Z,1.27
2018-11-21T12:57:00.235Z,1.25
2018-11-21T12:58:00.411Z,1.28
2018-11-21T12:59:00.761Z,1.2
2018-11-21T13:00:01.113Z,1.16
2018-11-21T13:01:02.466Z,1.14
2018-11-21T13:02:03.781Z,1.13
2018-11-21T13:03:04.510Z,1.06
2018-11-21T13:04:05.578Z,1.02
2018-11-21T13:05:06.209Z,1.04
2018-11-21T13:06:06.884Z,0.95
2018-11-21T13:07:07.971Z,1
2018-11-21T13:08:08.076Z,0.96
2018-11-21T13:09:09.423Z,1
2018-11-21T13:10:10.617Z,1.04
2018-11-21T13:11:10.401Z,1.06
2018-11-21T13:12:10.909Z,1.13
2018-11-21T13:13:11.535Z,1.27
2018-11-21T13:14:12.289Z,1.22
2018-11-21T13:15:12.501Z,1.13
2018-11-21T13:16:13.922Z,1.2
2018-11-21T13:17:14.295Z,1.27
2018-11-21T13:18:14.637Z,1.28
2018-11-21T13:19:15.149Z,1.42
2018-11-21T13:20:16.179Z,1.48
2018-11-21T13:21:16.959Z,1.46
2018-11-21T13:22:18.528Z,1.39
2018-11-21T13:23:19.312Z,1.46
2018-11-21T13:24:20.392Z,1.36
2018-11-21T13:25:21.028Z,1.28
2018-11-21T13:26:21.635Z,1.2
2018-11-21T13:27:21.765Z,1.18
2018-11-21T13:28:22.552Z,1.12
2018-11-21T13:29:23.341Z,1.13
2018-11-21T13:30:24.598Z,1.14
2018-11-21T13:31:26.919Z,1.13
2018-11-21T13:32:26.330Z,1.2
2018-11-21T13:33:27.468Z,1.1
2018-11-21T13:34:28.863Z,1.27
2018-11-21T13:35:30.459Z,1.3
2018-11-21T13:36:30.270Z,1.34
2018-11-21T13:37:31.334Z,1.48
2018-11-21T13:38:32.157Z,1.53
2018-11-21T13:39:33.057Z,1.75
2018-11-21T13:40:34.129Z,1.75
2018-11-21T13:41:34.191Z,1.75
2018-11-21T13:42:35.254Z,1.57
2018-11-21T13:43:35.489Z,1.52
2018-11-21T13:44:36.674Z,1.43
2018-11-21T13:45:37.458Z,1.38
2018-11-21T13:46:39.682Z,1.21
2018-11-21T13:47:39.821Z,1.25
2018-11-21T13:48:39.949Z,1.1
2018-11-21T13:49:41.055Z,1.16
2018-11-21T13:50:41.676Z,1.16
2018-11-21T13:51:44.108Z,1.18
2018-11-21T13:52:44.138Z,1.2
2018-11-21T13:53:47.588Z,1.25
2018-11-21T13:53:57.152Z,1.25
2018-11-21T13:54:57.281Z,1.22
2018-11-21T13:55:57.064Z,1.21
2018-11-21T13:56:58.125Z,1.24
2018-11-21T13:57:59.471Z,1.18
2018-11-21T13:58:59.536Z,1.27
2018-11-21T14:00:00.601Z,1.32
2018-11-21T14:01:01.949Z,1.31
2018-11-21T14:02:03.171Z,1.32
2018-11-21T14:03:03.232Z,1.34
2018-11-21T14:04:03.737Z,1.46
2018-11-21T14:05:05.415Z,1.48
2018-11-21T14:06:06.045Z,1.53
2018-11-21T14:07:07.112Z,1.53
2018-11-21T14:08:07.176Z,1.48
2018-11-21T14:09:07.967Z,1.6
2018-11-21T14:10:10.344Z,1.56
2018-11-21T14:11:10.132Z,1.58
2018-11-21T14:12:12.081Z,1.68
2018-11-21T14:13:13.192Z,1.75
2018-11-21T14:14:13.535Z,1.74
2018-11-21T14:15:14.928Z,1.75
2018-11-21T14:16:15.842Z,1.67
2018-11-21T14:17:16.194Z,1.63
2018-11-21T14:18:16.703Z,1.68
2018-11-21T14:19:17.767Z,1.68
2018-11-21T14:20:18.395Z,1.68
2018-11-21T14:21:18.777Z,1.66
2018-11-21T14:22:19.009Z,1.57
2018-11-21T14:23:20.072Z,1.6
2018-11-21T14:24:21.411Z,1.52
2018-11-21T14:25:22.578Z,1.6
2018-11-21T14:26:24.147Z,1.45
2018-11-21T14:27:24.665Z,1.43
2018-11-21T14:28:24.507Z,1.56
2018-11-21T14:29:25.124Z,1.48
2018-11-21T14:30:26.195Z,1.56
2018-11-21T14:31:27.290Z,1.67
2018-11-21T14:32:27.796Z,1.64
2018-11-21T14:33:28.582Z,1.53
2018-11-21T14:34:29.932Z,1.57
2018-11-21T14:35:30.901Z,1.61
2018-11-21T14:36:31.244Z,1.52
2018-11-21T14:37:31.310Z,1.49
2018-11-21T14:38:31.819Z,1.6
2018-11-21T14:39:33.160Z,1.45
2018-11-21T14:40:33.502Z,1.61
2018-11-21T14:41:34.567Z,1.6
2018-11-21T14:42:35.353Z,1.53
2018-11-21T14:43:35.703Z,1.6
2018-11-21T14:44:36.206Z,1.58
2018-11-21T14:45:37.593Z,1.67
2018-11-21T14:46:37.940Z,1.58
2018-11-21T14:47:38.444Z,1.57
2018-11-21T14:48:39.952Z,1.56
2018-11-21T14:49:41.742Z,1.56
2018-11-21T14:50:42.523Z,1.61
2018-11-21T14:51:43.602Z,1.5
2018-11-21T14:52:44.949Z,1.5
2018-11-21T14:53:46.662Z,1.52
2018-11-21T14:54:46.078Z,1.49
2018-11-21T14:55:46.641Z,1.56
2018-11-21T14:56:47.719Z,1.57
2018-11-21T14:57:48.524Z,1.57
2018-11-21T14:58:49.997Z,1.58
2018-11-21T14:59:51.282Z,1.57
2018-11-21T15:00:51.190Z,1.63
2018-11-21T15:01:52.152Z,1.45
2018-11-21T15:02:52.818Z,1.36
2018-11-21T15:03:54.036Z,1.49
2018-11-21T15:04:54.430Z,1.46
2018-11-21T15:05:56.089Z,1.46
2018-11-21T15:06:56.286Z,1.38
2018-11-21T15:07:57.625Z,1.46
2018-11-21T15:08:58.961Z,1.43
2018-11-21T15:09:58.745Z,1.43
2018-11-21T15:10:59.806Z,1.46
2018-11-21T15:12:00.149Z,1.56
2018-11-21T15:13:00.937Z,1.58
2018-11-21T15:14:01.328Z,1.66
2018-11-21T15:15:02.234Z,1.64
2018-11-21T15:16:03.063Z,1.6
2018-11-21T15:17:04.134Z,1.58
2018-11-21T15:18:05.197Z,1.7
2018-11-21T15:19:06.087Z,1.58
2018-11-21T15:20:06.603Z,1.57
2018-11-21T15:21:08.220Z,1.58
2018-11-21T15:21:19.594Z,1.66
2018-11-21T15:22:19.866Z,1.67
2018-11-21T15:23:20.709Z,1.76
2018-11-21T15:24:20.778Z,1.75
2018-11-21T15:25:21.898Z,1.66
2018-11-21T15:26:22.737Z,1.68
2018-11-21T15:27:23.644Z,1.68
2018-11-21T15:28:24.429Z,1.52
2018-11-21T15:29:25.112Z,1.56
2018-11-21T15:30:26.461Z,1.56
2018-11-21T15:31:27.377Z,1.57
2018-11-21T15:32:27.956Z,1.45
2018-11-21T15:33:29.296Z,1.49
2018-11-21T15:34:29.642Z,1.39
2018-11-21T15:35:31.007Z,1.45
2018-11-21T15:36:31.343Z,1.45
2018-11-21T15:37:32.404Z,1.42
2018-11-21T15:38:33.468Z,1.53
2018-11-21T15:39:33.715Z,1.6
2018-11-21T15:40:35.443Z,1.57
2018-11-21T15:41:35.390Z,1.48
2018-11-21T15:42:36.666Z,1.61
2018-11-21T15:43:37.726Z,1.49
2018-11-21T15:44:38.510Z,1.67
2018-11-21T15:45:39.296Z,1.52
2018-11-21T15:46:46.750Z,1.42
2018-11-21T15:46:52.568Z,1.56
2018-11-21T15:47:53.328Z,1.5
2018-11-21T15:48:53.699Z,1.38
2018-11-21T15:49:55.168Z,1.39
2018-11-21T15:50:55.510Z,1.4
2018-11-21T15:52:02.684Z,1.4
2018-11-21T15:52:08.227Z,1.39
2018-11-21T15:53:08.956Z,1.42
2018-11-21T15:54:12.597Z,1.39
2018-11-21T15:55:12.590Z,1.46
2018-11-21T15:56:12.731Z,1.48
2018-11-21T15:57:13.817Z,1.56
2018-11-21T15:58:14.311Z,1.58
2018-11-21T15:59:15.388Z,1.57
2018-11-21T16:00:15.457Z,1.64
2018-11-21T16:01:16.520Z,1.66
2018-11-21T16:02:17.411Z,1.58
2018-11-21T16:03:17.562Z,1.74
2018-11-21T16:04:18.095Z,1.67
2018-11-21T16:05:19.164Z,1.52
2018-11-21T16:06:20.240Z,1.63
2018-11-21T16:07:21.018Z,1.66
2018-11-21T16:08:26.157Z,1.58
2018-11-21T16:08:34.772Z,1.49
2018-11-21T16:09:35.647Z,1.6
2018-11-21T16:09:47.220Z,1.48
2018-11-21T16:10:48.348Z,1.61
2018-11-21T16:11:49.709Z,1.58
2018-11-21T16:12:51.164Z,1.6
2018-11-21T16:13:50.881Z,1.53
2018-11-21T16:14:52.993Z,1.52
2018-11-21T16:15:55.003Z,1.57
2018-11-21T16:16:55.102Z,1.57
2018-11-21T16:17:55.310Z,1.57
2018-11-21T16:18:56.099Z,1.6
2018-11-21T16:19:57.321Z,1.64
2018-11-21T16:20:58.784Z,1.58
2018-11-21T16:22:00.078Z,1.63
2018-11-21T16:23:00.862Z,1.6
2018-11-21T16:24:00.918Z,1.61
2018-11-21T16:25:01.535Z,1.56
2018-11-21T16:26:02.125Z,1.57
2018-11-21T16:27:02.470Z,1.43
2018-11-21T16:28:03.533Z,1.56
2018-11-21T16:29:04.036Z,1.49
2018-11-21T16:30:06.049Z,1.61
2018-11-21T16:31:06.444Z,1.57
2018-11-21T16:32:06.508Z,1.43
2018-11-21T16:33:07.571Z,1.61
2018-11-21T16:34:07.360Z,1.53
2018-11-21T16:35:10.341Z,1.68
2018-11-21T16:36:10.399Z,1.61
2018-11-21T16:37:10.466Z,1.68
2018-11-21T16:38:11.355Z,1.66
2018-11-21T16:39:12.248Z,1.63
2018-11-21T16:40:11.753Z,1.71
2018-11-21T16:41:12.856Z,1.6
2018-11-21T16:42:13.903Z,1.71
2018-11-21T16:43:14.518Z,1.58
2018-11-21T16:44:14.860Z,1.64
2018-11-21T16:45:15.197Z,1.68
2018-11-21T16:46:16.096Z,1.71
2018-11-21T16:47:16.877Z,1.67
2018-11-21T16:48:17.656Z,1.52
2018-11-21T16:49:19.150Z,1.56
2018-11-21T16:50:19.929Z,1.56
2018-11-21T16:51:20.779Z,1.56
2018-11-21T16:52:21.838Z,1.6
2018-11-21T16:53:21.901Z,1.58
2018-11-21T16:54:22.961Z,1.58
2018-11-21T16:55:23.772Z,1.56
2018-11-21T16:56:24.276Z,1.56
2018-11-21T16:57:25.560Z,1.56
2018-11-21T16:58:25.340Z,1.45
2018-11-21T16:59:26.399Z,1.43
2018-11-21T17:00:27.025Z,1.34
2018-11-21T17:01:28.368Z,1.53
2018-11-21T17:02:28.459Z,1.52
2018-11-21T17:03:29.518Z,1.57
2018-11-21T17:04:29.576Z,1.58
2018-11-21T17:05:30.636Z,1.49
2018-11-21T17:06:31.702Z,1.61
2018-11-21T17:07:32.208Z,1.64
2018-11-21T17:08:33.545Z,1.64
2018-11-21T17:09:34.051Z,1.53
2018-11-21T17:10:36.108Z,1.52
2018-11-21T17:11:36.211Z,1.61
2018-11-21T17:12:38.269Z,1.61
2018-11-21T17:13:38.328Z,1.5
2018-11-21T17:14:39.153Z,1.66
2018-11-21T17:15:39.936Z,1.6
2018-11-21T17:16:40.546Z,1.61
2018-11-21T17:17:41.889Z,1.68
2018-11-21T17:18:42.389Z,1.67
2018-11-21T17:19:43.169Z,1.68
2018-11-21T17:20:44.228Z,1.67
2018-11-21T17:21:45.055Z,1.71
2018-11-21T17:22:45.122Z,1.74
2018-11-21T17:23:46.186Z,1.76
2018-11-21T17:24:46.697Z,1.85
2018-11-21T17:25:47.201Z,1.79
2018-11-21T17:26:48.816Z,1.78
2018-11-21T17:27:49.041Z,1.76
2018-11-21T17:28:50.694Z,1.74
2018-11-21T17:29:55.273Z,1.78
2018-11-21T17:30:56.336Z,1.78
2018-11-21T17:31:57.133Z,1.81
2018-11-21T17:32:56.920Z,1.76
2018-11-21T17:33:57.702Z,1.81
2018-11-21T17:34:58.485Z,1.81
2018-11-21T17:35:59.309Z,1.78
2018-11-21T17:37:00.654Z,1.75
2018-11-21T17:38:03.655Z,1.79
2018-11-21T17:39:04.717Z,1.75
2018-11-21T17:40:05.773Z,1.67
2018-11-21T17:41:07.623Z,1.7
2018-11-21T17:42:08.058Z,1.71
2018-11-21T17:43:09.388Z,1.67
2018-11-21T17:44:10.446Z,1.75
2018-11-21T17:45:11.066Z,1.67
2018-11-21T17:46:11.690Z,1.7
2018-11-21T17:47:12.669Z,1.68
2018-11-21T17:48:13.005Z,1.75
2018-11-21T17:49:14.541Z,1.78
2018-11-21T17:50:16.598Z,1.75